Del Rio, Laughlin Air Force Base (KDLF)

NameLaughlin Air Force Base
CityDel Rio
CountryUnited States
ICAOKDLF
IATADLF
Altitude330 m
CoordinatesGoogle Map
Live Air TrafficLiveATC.net
METARKDLF 270556Z AUTO 12010KT 10SM CLR 24/22 A3011 RMK AO2 SLP185 T02390216 10298 20239 403140216 51015 $
2019-06-27 05:56:00 Wind: East-Southeast (120°) 5.14 m/s - Visibility: 16093.4 m - Temperature: 24 °C - Dew point: 22 °C - Humidity: 88.6% - Pressure: 1019.64 hPa
Statistics

The table below shows the detailed information of all flights to/from Del Rio, Laughlin Air Force Base (KDLF).